sensor_id;sensor_type;location;lat;lon;timestamp;temperature;humidity
6443;DHT22;3254;47.372;8.512;2023-07-29T00:00:46;16.50;99.90
6443;DHT22;3254;47.372;8.512;2023-07-29T00:03:12;16.40;99.90
6443;DHT22;3254;47.372;8.512;2023-07-29T00:05:39;16.30;99.90
6443;DHT22;3254;47.372;8.512;2023-07-29T00:08:05;16.30;99.90
6443;DHT22;3254;47.372;8.512;2023-07-29T00:10:36;16.20;99.90
6443;DHT22;3254;47.372;8.512;2023-07-29T00:13:01;16.10;99.90
6443;DHT22;3254;47.372;8.512;2023-07-29T00:15:27;16.10;99.90
6443;DHT22;3254;47.372;8.512;2023-07-29T00:17:52;16.10;99.90
6443;DHT22;3254;47.372;8.512;2023-07-29T00:20:18;16.10;99.90
6443;DHT22;3254;47.372;8.512;2023-07-29T00:22:45;16.10;99.90
6443;DHT22;3254;47.372;8.512;2023-07-29T00:25:17;16.00;99.90
6443;DHT22;3254;47.372;8.512;2023-07-29T00:27:43;15.90;99.90
6443;DHT22;3254;47.372;8.512;2023-07-29T00:30:08;16.00;99.90
6443;DHT22;3254;47.372;8.512;2023-07-29T00:32:35;16.10;99.90
6443;DHT22;3254;47.372;8.512;2023-07-29T00:35:02;16.20;99.90
6443;DHT22;3254;47.372;8.512;2023-07-29T00:37:29;16.20;99.90
6443;DHT22;3254;47.372;8.512;2023-07-29T00:39:57;16.20;99.90
6443;DHT22;3254;47.372;8.512;2023-07-29T00:42:26;16.20;99.90
6443;DHT22;3254;47.372;8.512;2023-07-29T00:44:51;16.20;99.90
6443;DHT22;3254;47.372;8.512;2023-07-29T00:47:17;16.20;99.90
6443;DHT22;3254;47.372;8.512;2023-07-29T00:49:44;16.20;99.90
6443;DHT22;3254;47.372;8.512;2023-07-29T00:52:11;16.10;99.90
6443;DHT22;3254;47.372;8.512;2023-07-29T00:54:39;16.00;99.90
6443;DHT22;3254;47.372;8.512;2023-07-29T00:57:08;16.00;99.90
6443;DHT22;3254;47.372;8.512;2023-07-29T00:59:37;16.00;99.90
6443;DHT22;3254;47.372;8.512;2023-07-29T01:02:04;16.10;99.90
6443;DHT22;3254;47.372;8.512;2023-07-29T01:04:31;16.20;99.90
6443;DHT22;3254;47.372;8.512;2023-07-29T01:07:20;16.20;99.90
6443;DHT22;3254;47.372;8.512;2023-07-29T01:12:54;16.00;99.90
6443;DHT22;3254;47.372;8.512;2023-07-29T01:16:01;16.10;99.90
6443;DHT22;3254;47.372;8.512;2023-07-29T01:18:30;16.20;99.90
6443;DHT22;3254;47.372;8.512;2023-07-29T01:21:03;16.20;99.90
6443;DHT22;3254;47.372;8.512;2023-07-29T01:23:33;16.30;99.90
6443;DHT22;3254;47.372;8.512;2023-07-29T01:25:59;16.30;99.90
6443;DHT22;3254;47.372;8.512;2023-07-29T01:28:26;16.20;99.90
6443;DHT22;3254;47.372;8.512;2023-07-29T01:31:00;16.20;99.90
6443;DHT22;3254;47.372;8.512;2023-07-29T01:33:30;16.10;99.90
6443;DHT22;3254;47.372;8.512;2023-07-29T01:36:02;16.10;99.90
6443;DHT22;3254;47.372;8.512;2023-07-29T01:38:31;16.10;99.90
6443;DHT22;3254;47.372;8.512;2023-07-29T01:41:02;16.00;99.90
6443;DHT22;3254;47.372;8.512;2023-07-29T01:43:31;16.10;99.90
6443;DHT22;3254;47.372;8.512;2023-07-29T01:45:58;16.20;99.90
6443;DHT22;3254;47.372;8.512;2023-07-29T01:48:25;16.20;99.90
6443;DHT22;3254;47.372;8.512;2023-07-29T01:50:51;16.30;99.90
6443;DHT22;3254;47.372;8.512;2023-07-29T01:53:18;16.30;99.90
6443;DHT22;3254;47.372;8.512;2023-07-29T01:55:44;16.30;99.90
6443;DHT22;3254;47.372;8.512;2023-07-29T01:58:10;16.30;99.90
6443;DHT22;3254;47.372;8.512;2023-07-29T02:00:38;16.30;99.90
6443;DHT22;3254;47.372;8.512;2023-07-29T02:03:04;16.30;99.90
6443;DHT22;3254;47.372;8.512;2023-07-29T02:05:30;16.20;99.90
6443;DHT22;3254;47.372;8.512;2023-07-29T02:07:57;16.20;99.90
6443;DHT22;3254;47.372;8.512;2023-07-29T02:10:23;16.20;99.90
6443;DHT22;3254;47.372;8.512;2023-07-29T02:12:48;16.20;99.90
6443;DHT22;3254;47.372;8.512;2023-07-29T02:15:14;16.10;99.90
6443;DHT22;3254;47.372;8.512;2023-07-29T02:17:41;16.10;99.90
6443;DHT22;3254;47.372;8.512;2023-07-29T02:20:08;16.00;99.90
6443;DHT22;3254;47.372;8.512;2023-07-29T02:22:34;16.00;99.90
6443;DHT22;3254;47.372;8.512;2023-07-29T02:24:59;16.00;99.90
6443;DHT22;3254;47.372;8.512;2023-07-29T02:27:27;16.00;99.90
6443;DHT22;3254;47.372;8.512;2023-07-29T02:29:54;16.00;99.90
6443;DHT22;3254;47.372;8.512;2023-07-29T02:32:21;16.00;99.90
6443;DHT22;3254;47.372;8.512;2023-07-29T02:34:48;16.00;99.90
6443;DHT22;3254;47.372;8.512;2023-07-29T02:37:14;16.00;99.90
6443;DHT22;3254;47.372;8.512;2023-07-29T02:39:39;16.00;99.90
6443;DHT22;3254;47.372;8.512;2023-07-29T02:42:05;16.10;99.90
6443;DHT22;3254;47.372;8.512;2023-07-29T02:44:30;16.20;99.90
6443;DHT22;3254;47.372;8.512;2023-07-29T02:46:57;16.30;99.90
6443;DHT22;3254;47.372;8.512;2023-07-29T02:49:23;16.30;99.90
6443;DHT22;3254;47.372;8.512;2023-07-29T02:51:50;16.40;99.90
6443;DHT22;3254;47.372;8.512;2023-07-29T02:54:17;16.40;99.90
6443;DHT22;3254;47.372;8.512;2023-07-29T02:56:43;16.40;99.90
6443;DHT22;3254;47.372;8.512;2023-07-29T02:59:10;16.40;99.90
6443;DHT22;3254;47.372;8.512;2023-07-29T03:01:43;16.40;99.90
6443;DHT22;3254;47.372;8.512;2023-07-29T03:04:08;16.40;99.90
6443;DHT22;3254;47.372;8.512;2023-07-29T03:06:34;16.50;99.90
6443;DHT22;3254;47.372;8.512;2023-07-29T03:09:00;16.60;99.90
6443;DHT22;3254;47.372;8.512;2023-07-29T03:11:26;16.60;99.90
6443;DHT22;3254;47.372;8.512;2023-07-29T03:13:51;16.60;99.90
6443;DHT22;3254;47.372;8.512;2023-07-29T03:16:17;16.60;99.90
6443;DHT22;3254;47.372;8.512;2023-07-29T03:18:47;16.60;99.90
6443;DHT22;3254;47.372;8.512;2023-07-29T03:21:13;16.60;99.90
6443;DHT22;3254;47.372;8.512;2023-07-29T03:23:39;16.60;99.90
6443;DHT22;3254;47.372;8.512;2023-07-29T03:26:05;16.60;99.90
6443;DHT22;3254;47.372;8.512;2023-07-29T03:28:41;16.70;99.90
6443;DHT22;3254;47.372;8.512;2023-07-29T03:31:09;16.70;99.90
6443;DHT22;3254;47.372;8.512;2023-07-29T03:33:35;16.70;99.90
6443;DHT22;3254;47.372;8.512;2023-07-29T03:36:01;16.80;99.90
6443;DHT22;3254;47.372;8.512;2023-07-29T03:38:28;16.90;99.90
6443;DHT22;3254;47.372;8.512;2023-07-29T03:40:54;17.20;99.90
6443;DHT22;3254;47.372;8.512;2023-07-29T03:43:25;17.60;99.90
6443;DHT22;3254;47.372;8.512;2023-07-29T03:45:51;17.10;99.90
6443;DHT22;3254;47.372;8.512;2023-07-29T03:48:17;16.80;99.90
6443;DHT22;3254;47.372;8.512;2023-07-29T03:50:42;16.80;99.90
6443;DHT22;3254;47.372;8.512;2023-07-29T03:53:08;16.70;99.90
6443;DHT22;3254;47.372;8.512;2023-07-29T03:55:36;16.60;99.90
6443;DHT22;3254;47.372;8.512;2023-07-29T03:58:02;16.60;99.90
6443;DHT22;3254;47.372;8.512;2023-07-29T04:00:28;16.60;99.90
6443;DHT22;3254;47.372;8.512;2023-07-29T04:02:55;16.70;99.90
6443;DHT22;3254;47.372;8.512;2023-07-29T04:05:23;16.70;99.90
6443;DHT22;3254;47.372;8.512;2023-07-29T04:07:49;16.70;99.90
6443;DHT22;3254;47.372;8.512;2023-07-29T04:10:15;16.70;99.90
6443;DHT22;3254;47.372;8.512;2023-07-29T04:12:42;16.70;99.90
6443;DHT22;3254;47.372;8.512;2023-07-29T04:15:08;16.70;99.90
6443;DHT22;3254;47.372;8.512;2023-07-29T04:17:34;16.60;99.90
6443;DHT22;3254;47.372;8.512;2023-07-29T04:20:00;16.60;99.90
6443;DHT22;3254;47.372;8.512;2023-07-29T04:22:25;16.50;99.90
6443;DHT22;3254;47.372;8.512;2023-07-29T04:24:51;16.40;99.90
6443;DHT22;3254;47.372;8.512;2023-07-29T04:27:17;16.40;99.90
6443;DHT22;3254;47.372;8.512;2023-07-29T04:29:44;16.40;99.90
6443;DHT22;3254;47.372;8.512;2023-07-29T04:32:12;16.40;99.90
6443;DHT22;3254;47.372;8.512;2023-07-29T04:34:37;16.40;99.90
6443;DHT22;3254;47.372;8.512;2023-07-29T04:37:04;16.50;99.90
6443;DHT22;3254;47.372;8.512;2023-07-29T04:39:29;16.50;99.90
6443;DHT22;3254;47.372;8.512;2023-07-29T04:41:55;16.40;99.90
6443;DHT22;3254;47.372;8.512;2023-07-29T04:44:23;16.40;99.90
6443;DHT22;3254;47.372;8.512;2023-07-29T04:46:50;16.60;99.90
6443;DHT22;3254;47.372;8.512;2023-07-29T04:49:18;16.60;99.90
6443;DHT22;3254;47.372;8.512;2023-07-29T04:51:45;16.70;99.90
6443;DHT22;3254;47.372;8.512;2023-07-29T04:54:10;16.70;99.90
6443;DHT22;3254;47.372;8.512;2023-07-29T04:56:37;16.80;99.90
6443;DHT22;3254;47.372;8.512;2023-07-29T04:59:05;16.80;99.90
6443;DHT22;3254;47.372;8.512;2023-07-29T05:01:33;16.80;99.90
6443;DHT22;3254;47.372;8.512;2023-07-29T05:03:59;16.80;99.90
6443;DHT22;3254;47.372;8.512;2023-07-29T05:06:24;16.80;99.90
6443;DHT22;3254;47.372;8.512;2023-07-29T05:08:52;16.90;99.90
6443;DHT22;3254;47.372;8.512;2023-07-29T05:11:17;17.10;99.90
6443;DHT22;3254;47.372;8.512;2023-07-29T05:13:43;17.20;99.90
6443;DHT22;3254;47.372;8.512;2023-07-29T05:16:09;17.10;99.90
6443;DHT22;3254;47.372;8.512;2023-07-29T05:18:34;17.00;99.90
6443;DHT22;3254;47.372;8.512;2023-07-29T05:21:00;17.00;99.90
6443;DHT22;3254;47.372;8.512;2023-07-29T05:23:26;16.90;99.90
6443;DHT22;3254;47.372;8.512;2023-07-29T05:25:53;16.90;99.90
6443;DHT22;3254;47.372;8.512;2023-07-29T05:28:18;16.90;99.90
6443;DHT22;3254;47.372;8.512;2023-07-29T05:30:45;17.00;99.90
6443;DHT22;3254;47.372;8.512;2023-07-29T05:33:12;17.00;99.90
6443;DHT22;3254;47.372;8.512;2023-07-29T05:35:38;17.10;99.90
6443;DHT22;3254;47.372;8.512;2023-07-29T05:38:05;17.10;99.90
6443;DHT22;3254;47.372;8.512;2023-07-29T05:40:34;17.20;99.90
6443;DHT22;3254;47.372;8.512;2023-07-29T05:43:00;17.20;99.90
6443;DHT22;3254;47.372;8.512;2023-07-29T05:45:26;17.40;99.90
6443;DHT22;3254;47.372;8.512;2023-07-29T05:47:53;17.40;99.90
6443;DHT22;3254;47.372;8.512;2023-07-29T05:50:19;17.50;99.90
6443;DHT22;3254;47.372;8.512;2023-07-29T05:52:45;17.60;99.90
6443;DHT22;3254;47.372;8.512;2023-07-29T05:55:11;17.70;99.90
6443;DHT22;3254;47.372;8.512;2023-07-29T05:57:37;17.90;98.60
6443;DHT22;3254;47.372;8.512;2023-07-29T06:00:03;18.00;94.70
6443;DHT22;3254;47.372;8.512;2023-07-29T06:02:30;18.10;88.80
6443;DHT22;3254;47.372;8.512;2023-07-29T06:04:56;18.20;93.20
6443;DHT22;3254;47.372;8.512;2023-07-29T06:07:23;18.40;74.00
6443;DHT22;3254;47.372;8.512;2023-07-29T06:09:49;18.50;52.50
6443;DHT22;3254;47.372;8.512;2023-07-29T06:12:14;18.80;50.80
6443;DHT22;3254;47.372;8.512;2023-07-29T06:14:41;19.00;39.90
6443;DHT22;3254;47.372;8.512;2023-07-29T06:17:08;19.20;31.00
6443;DHT22;3254;47.372;8.512;2023-07-29T06:19:39;19.40;25.90
6443;DHT22;3254;47.372;8.512;2023-07-29T06:22:05;19.60;2.40
6443;DHT22;3254;47.372;8.512;2023-07-29T06:24:35;19.70;3.30
6443;DHT22;3254;47.372;8.512;2023-07-29T06:27:02;19.90;1.00
6443;DHT22;3254;47.372;8.512;2023-07-29T06:29:28;19.80;1.00
6443;DHT22;3254;47.372;8.512;2023-07-29T06:31:55;19.80;1.00
6443;DHT22;3254;47.372;8.512;2023-07-29T06:34:21;19.80;1.00
6443;DHT22;3254;47.372;8.512;2023-07-29T06:36:49;20.00;1.00
6443;DHT22;3254;47.372;8.512;2023-07-29T06:39:17;20.10;1.00
6443;DHT22;3254;47.372;8.512;2023-07-29T06:41:42;20.30;1.00
6443;DHT22;3254;47.372;8.512;2023-07-29T06:44:08;20.40;1.00
6443;DHT22;3254;47.372;8.512;2023-07-29T06:46:33;20.80;1.00
6443;DHT22;3254;47.372;8.512;2023-07-29T06:48:59;21.00;1.00
6443;DHT22;3254;47.372;8.512;2023-07-29T06:51:24;21.10;1.00
6443;DHT22;3254;47.372;8.512;2023-07-29T06:53:50;21.30;1.00
6443;DHT22;3254;47.372;8.512;2023-07-29T06:56:16;21.30;1.00
6443;DHT22;3254;47.372;8.512;2023-07-29T06:58:42;21.50;1.00
6443;DHT22;3254;47.372;8.512;2023-07-29T07:01:08;21.60;1.00
6443;DHT22;3254;47.372;8.512;2023-07-29T07:03:34;21.70;1.00
6443;DHT22;3254;47.372;8.512;2023-07-29T07:05:59;21.60;1.00
6443;DHT22;3254;47.372;8.512;2023-07-29T07:08:26;21.50;1.00
6443;DHT22;3254;47.372;8.512;2023-07-29T07:10:52;21.60;1.00
6443;DHT22;3254;47.372;8.512;2023-07-29T07:13:17;21.70;1.00
6443;DHT22;3254;47.372;8.512;2023-07-29T07:15:44;21.90;1.00
6443;DHT22;3254;47.372;8.512;2023-07-29T07:18:10;22.00;1.00
6443;DHT22;3254;47.372;8.512;2023-07-29T07:20:37;22.20;1.00
6443;DHT22;3254;47.372;8.512;2023-07-29T07:23:06;22.30;1.00
6443;DHT22;3254;47.372;8.512;2023-07-29T07:25:36;22.40;1.00
6443;DHT22;3254;47.372;8.512;2023-07-29T07:28:01;22.40;1.00
6443;DHT22;3254;47.372;8.512;2023-07-29T07:30:27;22.70;1.00
6443;DHT22;3254;47.372;8.512;2023-07-29T07:32:54;23.00;1.00
6443;DHT22;3254;47.372;8.512;2023-07-29T07:35:19;23.10;1.00
6443;DHT22;3254;47.372;8.512;2023-07-29T07:37:45;23.30;1.00
6443;DHT22;3254;47.372;8.512;2023-07-29T07:40:11;23.60;1.00
6443;DHT22;3254;47.372;8.512;2023-07-29T07:42:36;24.20;1.00
6443;DHT22;3254;47.372;8.512;2023-07-29T07:45:02;25.00;1.00
6443;DHT22;3254;47.372;8.512;2023-07-29T07:47:28;26.00;1.00
6443;DHT22;3254;47.372;8.512;2023-07-29T07:49:53;26.80;1.00
6443;DHT22;3254;47.372;8.512;2023-07-29T07:52:20;26.70;1.00
6443;DHT22;3254;47.372;8.512;2023-07-29T07:54:46;26.00;1.00
6443;DHT22;3254;47.372;8.512;2023-07-29T07:57:16;26.20;1.00
6443;DHT22;3254;47.372;8.512;2023-07-29T07:59:42;26.60;1.00
6443;DHT22;3254;47.372;8.512;2023-07-29T08:02:07;26.50;1.00
6443;DHT22;3254;47.372;8.512;2023-07-29T08:04:33;26.50;1.00
6443;DHT22;3254;47.372;8.512;2023-07-29T08:06:58;26.10;1.00
6443;DHT22;3254;47.372;8.512;2023-07-29T08:09:24;26.30;1.00
6443;DHT22;3254;47.372;8.512;2023-07-29T08:11:51;26.40;1.00
6443;DHT22;3254;47.372;8.512;2023-07-29T08:14:17;27.30;1.00
6443;DHT22;3254;47.372;8.512;2023-07-29T08:16:42;28.10;1.00
6443;DHT22;3254;47.372;8.512;2023-07-29T08:19:08;28.40;1.00
6443;DHT22;3254;47.372;8.512;2023-07-29T08:21:35;28.50;1.00
6443;DHT22;3254;47.372;8.512;2023-07-29T08:24:00;28.20;1.00
6443;DHT22;3254;47.372;8.512;2023-07-29T08:26:26;28.20;1.00
6443;DHT22;3254;47.372;8.512;2023-07-29T08:28:52;28.00;1.00
6443;DHT22;3254;47.372;8.512;2023-07-29T08:31:17;28.50;1.00
6443;DHT22;3254;47.372;8.512;2023-07-29T08:33:43;28.60;1.00
6443;DHT22;3254;47.372;8.512;2023-07-29T08:36:08;28.60;1.00
6443;DHT22;3254;47.372;8.512;2023-07-29T08:38:34;28.80;1.00
6443;DHT22;3254;47.372;8.512;2023-07-29T08:41:25;28.80;1.00
6443;DHT22;3254;47.372;8.512;2023-07-29T08:44:06;28.70;1.00
6443;DHT22;3254;47.372;8.512;2023-07-29T08:46:34;29.20;1.00
6443;DHT22;3254;47.372;8.512;2023-07-29T08:49:01;29.20;1.00
6443;DHT22;3254;47.372;8.512;2023-07-29T08:51:27;29.70;1.00
6443;DHT22;3254;47.372;8.512;2023-07-29T08:53:55;30.50;1.00
6443;DHT22;3254;47.372;8.512;2023-07-29T08:56:21;30.30;1.00
6443;DHT22;3254;47.372;8.512;2023-07-29T08:58:46;30.40;1.00
6443;DHT22;3254;47.372;8.512;2023-07-29T09:01:12;30.70;1.00
6443;DHT22;3254;47.372;8.512;2023-07-29T09:03:38;30.10;1.00
6443;DHT22;3254;47.372;8.512;2023-07-29T09:06:04;30.20;1.00
6443;DHT22;3254;47.372;8.512;2023-07-29T09:08:32;30.40;1.00
6443;DHT22;3254;47.372;8.512;2023-07-29T09:10:58;30.80;1.00
6443;DHT22;3254;47.372;8.512;2023-07-29T09:13:24;30.70;1.00
6443;DHT22;3254;47.372;8.512;2023-07-29T09:15:54;31.60;1.00
6443;DHT22;3254;47.372;8.512;2023-07-29T09:18:20;30.80;1.00
6443;DHT22;3254;47.372;8.512;2023-07-29T09:20:47;30.20;1.00
6443;DHT22;3254;47.372;8.512;2023-07-29T09:23:13;30.50;1.00
6443;DHT22;3254;47.372;8.512;2023-07-29T09:25:40;30.70;1.00
6443;DHT22;3254;47.372;8.512;2023-07-29T09:28:13;31.30;1.00
6443;DHT22;3254;47.372;8.512;2023-07-29T09:30:40;31.80;1.00
6443;DHT22;3254;47.372;8.512;2023-07-29T09:33:06;32.00;1.00
6443;DHT22;3254;47.372;8.512;2023-07-29T09:35:34;32.20;1.00
6443;DHT22;3254;47.372;8.512;2023-07-29T09:38:01;31.50;1.00
6443;DHT22;3254;47.372;8.512;2023-07-29T09:40:26;31.40;1.00
6443;DHT22;3254;47.372;8.512;2023-07-29T09:42:54;31.60;1.00
6443;DHT22;3254;47.372;8.512;2023-07-29T09:47:47;32.30;1.00
6443;DHT22;3254;47.372;8.512;2023-07-29T09:50:12;32.80;1.00
6443;DHT22;3254;47.372;8.512;2023-07-29T09:52:38;32.80;1.00
6443;DHT22;3254;47.372;8.512;2023-07-29T09:55:04;33.00;1.00
6443;DHT22;3254;47.372;8.512;2023-07-29T09:57:32;33.40;1.00
6443;DHT22;3254;47.372;8.512;2023-07-29T09:59:57;33.20;1.00
6443;DHT22;3254;47.372;8.512;2023-07-29T10:02:23;33.10;1.00
6443;DHT22;3254;47.372;8.512;2023-07-29T10:04:53;32.40;1.00
6443;DHT22;3254;47.372;8.512;2023-07-29T10:07:20;31.80;1.00
6443;DHT22;3254;47.372;8.512;2023-07-29T10:09:46;32.00;1.00
6443;DHT22;3254;47.372;8.512;2023-07-29T10:12:13;32.30;1.00
6443;DHT22;3254;47.372;8.512;2023-07-29T10:14:39;32.80;1.00
6443;DHT22;3254;47.372;8.512;2023-07-29T10:17:05;33.20;1.00
6443;DHT22;3254;47.372;8.512;2023-07-29T10:19:31;33.00;1.00
6443;DHT22;3254;47.372;8.512;2023-07-29T10:22:03;32.70;1.00
6443;DHT22;3254;47.372;8.512;2023-07-29T10:24:42;32.80;1.00
6443;DHT22;3254;47.372;8.512;2023-07-29T10:27:12;32.20;1.00
6443;DHT22;3254;47.372;8.512;2023-07-29T10:29:43;31.00;1.00
6443;DHT22;3254;47.372;8.512;2023-07-29T10:32:12;30.90;1.00
6443;DHT22;3254;47.372;8.512;2023-07-29T10:34:39;31.10;1.00
6443;DHT22;3254;47.372;8.512;2023-07-29T10:37:05;31.30;1.00
6443;DHT22;3254;47.372;8.512;2023-07-29T10:39:41;32.70;1.00
6443;DHT22;3254;47.372;8.512;2023-07-29T10:42:17;32.80;1.00
6443;DHT22;3254;47.372;8.512;2023-07-29T10:44:49;32.40;1.00
6443;DHT22;3254;47.372;8.512;2023-07-29T10:47:26;32.50;1.00
6443;DHT22;3254;47.372;8.512;2023-07-29T10:49:56;32.10;1.00
6443;DHT22;3254;47.372;8.512;2023-07-29T10:52:51;31.20;1.00
6443;DHT22;3254;47.372;8.512;2023-07-29T10:55:32;30.60;1.00
6443;DHT22;3254;47.372;8.512;2023-07-29T10:58:27;30.30;1.00
6443;DHT22;3254;47.372;8.512;2023-07-29T11:00:58;30.00;1.00
6443;DHT22;3254;47.372;8.512;2023-07-29T11:03:23;29.70;1.00
6443;DHT22;3254;47.372;8.512;2023-07-29T11:05:54;29.10;1.00
6443;DHT22;3254;47.372;8.512;2023-07-29T11:08:21;28.70;1.00
6443;DHT22;3254;47.372;8.512;2023-07-29T11:13:31;28.00;1.00
6443;DHT22;3254;47.372;8.512;2023-07-29T11:15:58;27.70;1.00
6443;DHT22;3254;47.372;8.512;2023-07-29T11:18:32;27.40;1.00
6443;DHT22;3254;47.372;8.512;2023-07-29T11:20:59;27.00;1.00
6443;DHT22;3254;47.372;8.512;2023-07-29T11:23:36;26.60;1.00
6443;DHT22;3254;47.372;8.512;2023-07-29T11:26:03;26.20;1.00
6443;DHT22;3254;47.372;8.512;2023-07-29T11:28:29;26.00;1.00
6443;DHT22;3254;47.372;8.512;2023-07-29T11:30:55;25.90;1.00
6443;DHT22;3254;47.372;8.512;2023-07-29T11:33:26;25.30;1.00
6443;DHT22;3254;47.372;8.512;2023-07-29T11:35:55;22.80;1.00
6443;DHT22;3254;47.372;8.512;2023-07-29T11:38:22;20.30;99.90
6443;DHT22;3254;47.372;8.512;2023-07-29T11:41:00;19.70;99.90
6443;DHT22;3254;47.372;8.512;2023-07-29T11:43:26;19.80;99.90
6443;DHT22;3254;47.372;8.512;2023-07-29T11:45:52;20.50;99.90
6443;DHT22;3254;47.372;8.512;2023-07-29T11:48:26;22.30;99.90
6443;DHT22;3254;47.372;8.512;2023-07-29T11:50:54;23.00;99.90
6443;DHT22;3254;47.372;8.512;2023-07-29T11:53:21;23.10;99.90
6443;DHT22;3254;47.372;8.512;2023-07-29T11:55:51;22.30;99.90
6443;DHT22;3254;47.372;8.512;2023-07-29T11:58:17;22.00;99.90
6443;DHT22;3254;47.372;8.512;2023-07-29T12:00:43;22.10;99.90
6443;DHT22;3254;47.372;8.512;2023-07-29T12:03:09;22.00;99.90
6443;DHT22;3254;47.372;8.512;2023-07-29T12:05:36;21.90;99.90
6443;DHT22;3254;47.372;8.512;2023-07-29T12:08:02;21.80;99.90
6443;DHT22;3254;47.372;8.512;2023-07-29T12:10:29;21.50;99.90
6443;DHT22;3254;47.372;8.512;2023-07-29T12:12:55;21.40;99.90
6443;DHT22;3254;47.372;8.512;2023-07-29T12:15:28;21.30;99.90
6443;DHT22;3254;47.372;8.512;2023-07-29T12:17:55;21.30;99.90
6443;DHT22;3254;47.372;8.512;2023-07-29T12:20:28;21.10;99.90
6443;DHT22;3254;47.372;8.512;2023-07-29T12:22:59;21.10;99.90
6443;DHT22;3254;47.372;8.512;2023-07-29T12:25:28;20.90;99.90
6443;DHT22;3254;47.372;8.512;2023-07-29T12:27:55;20.90;99.90
6443;DHT22;3254;47.372;8.512;2023-07-29T12:30:21;20.90;99.90
6443;DHT22;3254;47.372;8.512;2023-07-29T12:32:47;20.90;99.90
6443;DHT22;3254;47.372;8.512;2023-07-29T12:35:17;20.90;99.90
6443;DHT22;3254;47.372;8.512;2023-07-29T12:37:42;20.80;99.90
6443;DHT22;3254;47.372;8.512;2023-07-29T12:40:28;20.90;99.90
6443;DHT22;3254;47.372;8.512;2023-07-29T12:42:54;20.80;99.90
6443;DHT22;3254;47.372;8.512;2023-07-29T12:45:20;20.70;99.90
6443;DHT22;3254;47.372;8.512;2023-07-29T12:47:48;20.50;99.90
6443;DHT22;3254;47.372;8.512;2023-07-29T12:50:14;19.90;99.90
6443;DHT22;3254;47.372;8.512;2023-07-29T12:52:39;18.80;99.90
6443;DHT22;3254;47.372;8.512;2023-07-29T12:55:05;17.90;99.90
6443;DHT22;3254;47.372;8.512;2023-07-29T12:57:33;17.70;99.90
6443;DHT22;3254;47.372;8.512;2023-07-29T12:59:59;17.70;99.90
6443;DHT22;3254;47.372;8.512;2023-07-29T13:02:24;17.90;99.90
6443;DHT22;3254;47.372;8.512;2023-07-29T13:04:51;18.10;99.90
6443;DHT22;3254;47.372;8.512;2023-07-29T13:07:16;18.10;99.90
6443;DHT22;3254;47.372;8.512;2023-07-29T13:09:42;18.20;99.90
6443;DHT22;3254;47.372;8.512;2023-07-29T13:12:08;18.30;99.90
6443;DHT22;3254;47.372;8.512;2023-07-29T13:14:34;18.40;99.90
6443;DHT22;3254;47.372;8.512;2023-07-29T13:17:00;18.60;99.90
6443;DHT22;3254;47.372;8.512;2023-07-29T13:19:27;18.70;99.90
6443;DHT22;3254;47.372;8.512;2023-07-29T13:21:59;18.80;99.90
6443;DHT22;3254;47.372;8.512;2023-07-29T13:24:26;18.70;99.90
6443;DHT22;3254;47.372;8.512;2023-07-29T13:26:51;18.80;99.90
6443;DHT22;3254;47.372;8.512;2023-07-29T13:29:17;18.70;99.90
6443;DHT22;3254;47.372;8.512;2023-07-29T13:31:43;18.60;99.90
6443;DHT22;3254;47.372;8.512;2023-07-29T13:34:08;18.70;99.90
6443;DHT22;3254;47.372;8.512;2023-07-29T13:36:34;18.60;99.90
6443;DHT22;3254;47.372;8.512;2023-07-29T13:38:59;18.60;99.90
6443;DHT22;3254;47.372;8.512;2023-07-29T13:41:26;18.70;99.90
6443;DHT22;3254;47.372;8.512;2023-07-29T13:43:52;18.60;99.90
6443;DHT22;3254;47.372;8.512;2023-07-29T13:46:17;18.60;99.90
6443;DHT22;3254;47.372;8.512;2023-07-29T13:48:46;18.60;99.90
6443;DHT22;3254;47.372;8.512;2023-07-29T13:51:12;18.80;99.90
6443;DHT22;3254;47.372;8.512;2023-07-29T13:53:39;18.80;99.90
6443;DHT22;3254;47.372;8.512;2023-07-29T13:56:04;18.60;99.90
6443;DHT22;3254;47.372;8.512;2023-07-29T13:58:31;18.60;99.90
6443;DHT22;3254;47.372;8.512;2023-07-29T14:00:57;18.50;99.90
6443;DHT22;3254;47.372;8.512;2023-07-29T14:03:24;18.40;99.90
6443;DHT22;3254;47.372;8.512;2023-07-29T14:05:50;18.30;99.90
6443;DHT22;3254;47.372;8.512;2023-07-29T14:08:15;18.30;99.90
6443;DHT22;3254;47.372;8.512;2023-07-29T14:10:42;18.20;99.90
6443;DHT22;3254;47.372;8.512;2023-07-29T14:13:07;18.30;99.90
6443;DHT22;3254;47.372;8.512;2023-07-29T14:15:33;18.30;99.90
6443;DHT22;3254;47.372;8.512;2023-07-29T14:18:00;18.40;99.90
6443;DHT22;3254;47.372;8.512;2023-07-29T14:20:29;18.40;99.90
6443;DHT22;3254;47.372;8.512;2023-07-29T14:22:56;18.30;99.90
6443;DHT22;3254;47.372;8.512;2023-07-29T14:25:21;18.10;99.90
6443;DHT22;3254;47.372;8.512;2023-07-29T14:27:48;18.10;99.90
6443;DHT22;3254;47.372;8.512;2023-07-29T14:30:13;18.10;99.90
6443;DHT22;3254;47.372;8.512;2023-07-29T14:32:39;18.10;99.90
6443;DHT22;3254;47.372;8.512;2023-07-29T14:35:06;18.10;99.90
6443;DHT22;3254;47.372;8.512;2023-07-29T14:37:34;18.00;99.90
6443;DHT22;3254;47.372;8.512;2023-07-29T14:40:02;18.10;99.90
6443;DHT22;3254;47.372;8.512;2023-07-29T14:42:29;18.20;99.90
6443;DHT22;3254;47.372;8.512;2023-07-29T14:44:55;18.30;99.90
6443;DHT22;3254;47.372;8.512;2023-07-29T14:47:22;18.30;99.90
6443;DHT22;3254;47.372;8.512;2023-07-29T14:49:48;18.20;99.90
6443;DHT22;3254;47.372;8.512;2023-07-29T14:52:14;18.00;99.90
6443;DHT22;3254;47.372;8.512;2023-07-29T14:54:41;18.20;99.90
6443;DHT22;3254;47.372;8.512;2023-07-29T14:57:07;18.10;99.90
6443;DHT22;3254;47.372;8.512;2023-07-29T14:59:32;18.00;99.90
6443;DHT22;3254;47.372;8.512;2023-07-29T15:01:58;18.00;99.90
6443;DHT22;3254;47.372;8.512;2023-07-29T15:04:25;18.00;99.90
6443;DHT22;3254;47.372;8.512;2023-07-29T15:06:51;18.10;99.90
6443;DHT22;3254;47.372;8.512;2023-07-29T15:09:17;18.00;99.90
6443;DHT22;3254;47.372;8.512;2023-07-29T15:11:43;18.00;99.90
6443;DHT22;3254;47.372;8.512;2023-07-29T15:14:09;18.00;99.90
6443;DHT22;3254;47.372;8.512;2023-07-29T15:16:37;18.00;99.90
6443;DHT22;3254;47.372;8.512;2023-07-29T15:19:06;18.10;99.90
6443;DHT22;3254;47.372;8.512;2023-07-29T15:21:31;18.00;99.90
6443;DHT22;3254;47.372;8.512;2023-07-29T15:24:00;18.00;99.90
6443;DHT22;3254;47.372;8.512;2023-07-29T15:26:28;18.00;99.90
6443;DHT22;3254;47.372;8.512;2023-07-29T15:28:54;18.00;99.90
6443;DHT22;3254;47.372;8.512;2023-07-29T15:31:19;18.00;99.90
6443;DHT22;3254;47.372;8.512;2023-07-29T15:33:45;18.00;99.90
6443;DHT22;3254;47.372;8.512;2023-07-29T15:36:13;18.00;99.90
6443;DHT22;3254;47.372;8.512;2023-07-29T15:38:40;18.10;99.90
6443;DHT22;3254;47.372;8.512;2023-07-29T15:41:07;18.20;99.90
6443;DHT22;3254;47.372;8.512;2023-07-29T15:43:38;18.30;99.90
6443;DHT22;3254;47.372;8.512;2023-07-29T15:46:10;18.40;99.90
6443;DHT22;3254;47.372;8.512;2023-07-29T15:48:38;18.40;99.90
6443;DHT22;3254;47.372;8.512;2023-07-29T15:51:09;18.40;99.90
6443;DHT22;3254;47.372;8.512;2023-07-29T15:53:37;18.40;99.90
6443;DHT22;3254;47.372;8.512;2023-07-29T15:56:04;18.40;99.90
6443;DHT22;3254;47.372;8.512;2023-07-29T15:58:30;18.40;99.90
6443;DHT22;3254;47.372;8.512;2023-07-29T16:00:55;18.50;99.90
6443;DHT22;3254;47.372;8.512;2023-07-29T16:03:22;18.40;99.90
6443;DHT22;3254;47.372;8.512;2023-07-29T16:05:49;18.40;99.90
6443;DHT22;3254;47.372;8.512;2023-07-29T16:08:14;18.40;99.90
6443;DHT22;3254;47.372;8.512;2023-07-29T16:10:40;18.50;99.90
6443;DHT22;3254;47.372;8.512;2023-07-29T16:13:05;18.50;99.90
6443;DHT22;3254;47.372;8.512;2023-07-29T16:15:32;18.50;99.90